createdAt,value
2018-04-01T00:02:34.993Z,91.10
2018-04-01T00:07:27.835Z,91.10
2018-04-01T00:12:21.434Z,91.90
2018-04-01T00:17:14.287Z,91.90
2018-04-01T00:22:07.146Z,92.60
2018-04-01T00:27:00.976Z,93.20
2018-04-01T00:31:53.823Z,93.10
2018-04-01T00:36:46.706Z,93.00
2018-04-01T00:41:39.574Z,93.70
2018-04-01T00:46:32.442Z,94.30
2018-04-01T00:51:25.322Z,94.20
2018-04-01T00:56:19.716Z,93.60
2018-04-01T01:01:12.583Z,93.60
2018-04-01T01:06:05.416Z,93.40
2018-04-01T01:10:59.038Z,93.60
2018-04-01T01:15:51.862Z,93.50
2018-04-01T01:20:44.719Z,93.70
2018-04-01T01:25:38.328Z,94.00
2018-04-01T01:30:31.222Z,94.00
2018-04-01T01:35:24.067Z,94.50
2018-04-01T01:40:17.084Z,95.00
2018-04-01T01:45:09.926Z,94.50
2018-04-01T01:50:02.781Z,94.40
2018-04-01T01:54:55.768Z,94.20
2018-04-01T01:59:48.742Z,94.10
2018-04-01T02:04:41.614Z,93.90
2018-04-01T02:09:34.221Z,93.50
2018-04-01T02:14:27.834Z,92.80
2018-04-01T02:19:20.812Z,92.80
2018-04-01T02:24:13.415Z,93.00
2018-04-01T02:29:06.262Z,92.90
2018-04-01T02:33:59.121Z,92.80
2018-04-01T02:38:51.973Z,92.70
2018-04-01T02:43:44.797Z,92.60
2018-04-01T02:48:38.422Z,93.50
2018-04-01T02:53:31.275Z,93.40
2018-04-01T02:58:24.118Z,93.40
2018-04-01T03:03:17.741Z,93.60
2018-04-01T03:08:10.573Z,93.60
2018-04-01T03:13:04.191Z,93.50
2018-04-01T03:17:57.034Z,93.50
2018-04-01T03:22:49.976Z,93.50
2018-04-01T03:27:42.825Z,93.30
2018-04-01T03:32:35.672Z,93.10
2018-04-01T03:37:28.533Z,92.70
2018-04-01T03:42:21.370Z,93.00
2018-04-01T03:47:14.195Z,92.50
2018-04-01T03:52:07.129Z,92.40
2018-04-01T03:56:59.977Z,92.10
2018-04-01T04:01:52.595Z,92.50
2018-04-01T04:06:45.218Z,92.30
2018-04-01T04:11:38.080Z,92.40
2018-04-01T04:16:30.934Z,92.40
2018-04-01T04:21:23.921Z,92.20
2018-04-01T04:26:16.799Z,92.10
2018-04-01T04:31:09.814Z,91.90
2018-04-01T04:36:03.448Z,92.00
2018-04-01T04:40:56.316Z,91.90
2018-04-01T04:45:49.201Z,92.40
2018-04-01T04:50:42.225Z,92.30
2018-04-01T04:55:34.845Z,92.20
2018-04-01T05:00:27.720Z,91.80
2018-04-01T05:05:20.584Z,91.90
2018-04-01T05:10:13.452Z,91.90
2018-04-01T05:15:06.293Z,91.90
2018-04-01T05:19:59.260Z,92.20
2018-04-01T05:24:52.879Z,92.60
2018-04-01T05:29:45.742Z,92.60
2018-04-01T05:34:38.590Z,92.80
2018-04-01T05:39:31.442Z,92.50
2018-04-01T05:44:24.058Z,91.80
2018-04-01T05:49:17.240Z,91.90
2018-04-01T05:54:10.200Z,91.90
2018-04-01T05:59:03.781Z,92.80
2018-04-01T06:03:57.419Z,92.90
2018-04-01T06:08:50.283Z,92.90
2018-04-01T06:13:43.126Z,92.70
2018-04-01T06:18:35.990Z,92.50
2018-04-01T06:23:28.883Z,92.40
2018-04-01T06:28:21.764Z,93.10
2018-04-01T06:33:14.612Z,92.60
2018-04-01T06:38:07.712Z,92.50
2018-04-01T06:43:00.550Z,92.20
2018-04-01T06:47:53.424Z,92.10
2018-04-01T06:52:46.288Z,92.50
2018-04-01T06:57:39.138Z,92.40
2018-04-01T07:02:32.019Z,92.50
2018-04-01T07:07:25.077Z,92.20
2018-04-01T07:12:19.659Z,92.60
2018-04-01T07:17:13.490Z,92.30
2018-04-01T07:22:06.384Z,92.20
2018-04-01T07:26:58.989Z,92.00
2018-04-01T07:31:52.846Z,92.10
2018-04-01T07:36:45.689Z,91.60
2018-04-01T07:41:38.564Z,91.70
2018-04-01T07:46:31.178Z,91.50
2018-04-01T07:51:24.025Z,91.50
2018-04-01T07:56:17.653Z,91.00
2018-04-01T08:01:10.549Z,91.00
2018-04-01T08:06:03.418Z,91.10
2018-04-01T08:10:56.257Z,91.00
2018-04-01T08:15:50.941Z,91.00
2018-04-01T08:20:43.808Z,91.10
2018-04-01T08:25:47.705Z,91.40
2018-04-01T08:30:40.636Z,91.40
2018-04-01T08:35:33.501Z,90.90
2018-04-01T08:40:26.281Z,90.70
2018-04-01T08:45:19.354Z,90.70
2018-04-01T08:50:12.206Z,90.80
2018-04-01T08:55:05.258Z,90.80
2018-04-01T09:55:50.468Z,90.40
2018-04-01T10:01:00.150Z,90.60
2018-04-01T10:05:54.322Z,90.40
2018-04-01T10:10:48.766Z,90.40
2018-04-01T10:15:43.141Z,90.70
2018-04-01T10:20:37.540Z,90.90
2018-04-01T10:25:32.022Z,91.20
2018-04-01T10:30:26.799Z,91.20
2018-04-01T10:35:21.237Z,91.40
2018-04-01T10:40:15.602Z,91.40
2018-04-01T10:45:10.091Z,91.60
2018-04-01T10:50:06.460Z,91.90
2018-04-01T10:54:59.318Z,92.20
2018-04-01T10:59:52.402Z,91.80
2018-04-01T11:04:45.350Z,91.80
2018-04-01T11:09:38.197Z,92.10
2018-04-01T11:14:31.071Z,91.80
2018-04-01T11:19:23.930Z,91.70
2018-04-01T11:24:16.588Z,91.70
2018-04-01T11:29:09.452Z,91.70
2018-04-01T11:34:02.290Z,91.60
2018-04-01T11:38:55.655Z,91.60
2018-04-01T11:43:49.286Z,91.50
2018-04-01T11:48:42.138Z,91.40
2018-04-01T11:53:34.997Z,91.50
2018-04-01T11:58:28.052Z,91.40
2018-04-01T12:03:21.887Z,91.50
2018-04-01T12:08:14.749Z,91.50
2018-04-01T12:13:07.594Z,91.60
2018-04-01T12:18:00.442Z,91.70
2018-04-01T12:22:54.071Z,91.30
2018-04-01T12:27:46.920Z,91.30
2018-04-01T12:32:39.838Z,91.30
2018-04-01T12:37:32.668Z,91.40
2018-04-01T12:42:25.638Z,91.20
2018-04-01T12:47:18.482Z,91.00
2018-04-01T12:52:11.336Z,91.00
2018-04-01T12:57:04.242Z,91.20
2018-04-01T13:01:57.108Z,90.80
2018-04-01T13:06:49.968Z,90.80
2018-04-01T13:11:42.810Z,90.80
2018-04-01T13:16:35.668Z,90.50
2018-04-01T13:21:29.390Z,88.10
2018-04-01T13:26:22.229Z,88.10
2018-04-01T13:31:15.863Z,86.30
2018-04-01T13:36:08.701Z,86.20
2018-04-01T13:41:01.552Z,84.30
2018-04-01T13:45:55.152Z,83.30
2018-04-01T13:50:48.045Z,82.40
2018-04-01T13:55:41.003Z,80.00
2018-04-01T14:00:33.622Z,80.40
2018-04-01T14:05:27.253Z,81.30
2018-04-01T14:10:20.231Z,81.30
2018-04-01T14:15:13.070Z,81.10
2018-04-01T14:20:05.905Z,81.20
2018-04-01T14:24:59.556Z,81.40
2018-04-01T14:29:52.699Z,81.30
2018-04-01T14:34:45.550Z,81.90
2018-04-01T14:39:38.389Z,82.80
2018-04-01T14:44:31.230Z,83.50
2018-04-01T14:49:24.087Z,85.10
2018-04-01T14:54:16.915Z,86.50
2018-04-01T14:59:10.534Z,88.50
2018-04-01T15:04:03.500Z,88.40
2018-04-01T15:08:56.366Z,88.50
2018-04-01T15:13:49.242Z,89.10
2018-04-01T15:18:42.069Z,88.40
2018-04-01T15:23:35.917Z,86.80
2018-04-01T15:28:28.759Z,86.80
2018-04-01T15:33:21.370Z,87.10
2018-04-01T15:38:14.221Z,86.50
2018-04-01T15:43:18.971Z,85.20
2018-04-01T15:48:12.648Z,85.50
2018-04-01T15:53:05.763Z,85.30
2018-04-01T15:57:59.427Z,86.40
2018-04-01T16:02:52.350Z,86.40
2018-04-01T16:07:45.248Z,87.80
2018-04-01T16:12:38.271Z,87.70
2018-04-01T16:17:31.236Z,88.50
2018-04-01T16:22:24.076Z,88.60
2018-04-01T16:27:17.929Z,88.80
2018-04-01T16:32:10.766Z,88.70
2018-04-01T16:37:03.600Z,88.80
2018-04-01T16:41:57.495Z,88.60
2018-04-01T16:46:50.372Z,88.40
2018-04-01T16:51:43.972Z,88.40
2018-04-01T16:56:38.503Z,88.30
2018-04-01T17:01:31.451Z,88.60
2018-04-01T17:06:25.167Z,88.80
2018-04-01T17:11:18.631Z,88.60
2018-04-01T17:16:11.534Z,88.80
2018-04-01T17:21:04.370Z,89.10
2018-04-01T17:25:57.352Z,89.00
2018-04-01T17:30:50.262Z,89.20
2018-04-01T17:35:43.878Z,89.80
2018-04-01T17:40:36.966Z,89.70
2018-04-01T17:45:29.853Z,90.10
2018-04-01T17:50:22.686Z,90.10
2018-04-01T17:55:15.548Z,90.40
2018-04-01T18:00:08.766Z,90.40
2018-04-01T18:05:01.659Z,90.40
2018-04-01T18:09:55.288Z,90.60
2018-04-01T18:14:49.291Z,90.70
2018-04-01T18:19:42.346Z,90.70
2018-04-01T18:24:35.194Z,90.70
2018-04-01T18:29:29.004Z,90.80
2018-04-01T18:34:21.864Z,90.70
2018-04-01T18:39:14.809Z,90.70
2018-04-01T18:44:08.644Z,91.00
2018-04-01T18:49:01.571Z,91.00
2018-04-01T18:53:55.188Z,91.20
2018-04-01T18:58:48.740Z,91.70
2018-04-01T19:03:42.331Z,91.10
2018-04-01T19:08:35.950Z,90.90
2018-04-01T19:13:28.902Z,90.90
2018-04-01T19:18:23.266Z,91.10
2018-04-01T19:23:17.403Z,91.20
2018-04-01T19:28:11.857Z,90.90
2018-04-01T19:33:06.294Z,91.00
2018-04-01T19:38:01.626Z,91.20
2018-04-01T19:42:56.056Z,91.10
2018-04-01T19:47:50.766Z,91.40
2018-04-01T19:52:45.379Z,91.10
2018-04-01T19:57:39.940Z,91.20
2018-04-01T20:02:37.258Z,91.30
2018-04-01T20:07:32.009Z,91.70
2018-04-01T20:12:34.351Z,91.60
2018-04-01T20:17:33.756Z,91.70
2018-04-01T20:22:30.676Z,91.40
2018-04-01T20:27:26.097Z,91.60
2018-04-01T20:32:24.629Z,91.70
2018-04-01T20:37:19.406Z,91.70
2018-04-01T20:42:15.392Z,91.70
2018-04-01T20:47:13.554Z,91.70
2018-04-01T20:52:08.820Z,91.70
2018-04-01T20:57:04.088Z,91.70
2018-04-01T21:02:02.766Z,91.70
2018-04-01T21:06:58.430Z,91.70
2018-04-01T21:11:54.636Z,91.60
2018-04-01T21:16:50.188Z,91.60
2018-04-01T21:21:44.979Z,91.90
2018-04-01T21:26:40.587Z,91.20
2018-04-01T21:31:35.051Z,91.30
2018-04-01T21:36:29.444Z,91.40
2018-04-01T21:41:23.812Z,91.30
2018-04-01T21:46:18.178Z,91.40
2018-04-01T21:51:13.330Z,91.40
2018-04-01T21:56:07.729Z,91.30
2018-04-01T22:01:02.061Z,91.30
2018-04-01T22:05:56.464Z,91.30
2018-04-01T22:10:51.212Z,91.30
2018-04-01T22:15:46.359Z,91.50
2018-04-01T22:20:40.731Z,91.50
2018-04-01T22:25:35.112Z,91.70
2018-04-01T22:30:29.511Z,91.70
2018-04-01T22:35:23.928Z,91.70
2018-04-01T22:40:18.289Z,91.80
2018-04-01T22:45:12.729Z,91.80
2018-04-01T22:50:06.885Z,91.90
2018-04-01T22:55:01.311Z,92.00
2018-04-01T22:59:55.676Z,92.00
2018-04-01T23:04:50.957Z,92.20
2018-04-01T23:09:45.370Z,92.10
2018-04-01T23:14:39.765Z,92.20
2018-04-01T23:19:34.989Z,92.10
2018-04-01T23:24:29.388Z,92.40
2018-04-01T23:29:24.516Z,92.40
2018-04-01T23:34:19.019Z,92.40
2018-04-01T23:39:13.494Z,92.50
2018-04-01T23:44:07.881Z,92.30
2018-04-01T23:49:02.511Z,91.90
2018-04-01T23:53:56.865Z,91.90
2018-04-01T23:58:52.053Z,91.80
